Time;durP1;ratioP1;P1;durP2;ratioP2;P2;SDS_P1;SDS_P2;PMS_P1;PMS_P2;Temp;Humidity;BMP_temperature;BMP_pressure;BME280_temperature;BME280_humidity;BME280_pressure;Samples;Min_cycle;Max_cycle;Signal;HPM_P1;HPM_P2
2022/08/24 00:01:14;;;;;;;18.73;8.70;;;;;;;19.09;99.64;99959.72;1710186;82;20912;-62
2022/08/24 00:03:43;;;;;;;17.05;8.53;;;;;;;19.10;99.66;99961.39;1707621;84;20962;-61
2022/08/24 00:06:13;;;;;;;18.50;8.48;;;;;;;19.09;99.91;99965.02;1707378;83;20914;-62
2022/08/24 00:08:41;;;;;;;17.50;8.45;;;;;;;19.10;99.90;99963.58;1702459;82;20980;-62
2022/08/24 00:11:08;;;;;;;22.02;8.55;;;;;;;19.13;99.97;99961.15;1710387;82;21063;-61
2022/08/24 00:13:37;;;;;;;19.60;8.08;;;;;;;19.14;100.00;99957.56;1709841;83;20957;-62
2022/08/24 00:16:06;;;;;;;16.42;8.50;;;;;;;19.13;100.00;99955.86;1706928;82;20926;-61
2022/08/24 00:18:32;;;;;;;21.80;8.18;;;;;;;19.12;100.00;99954.18;1706129;84;20926;-62
2022/08/24 00:21:00;;;;;;;32.78;8.23;;;;;;;19.16;100.00;99958.28;1705116;83;21352;-61
2022/08/24 00:23:28;;;;;;;22.52;8.10;;;;;;;19.18;100.00;99951.05;1719075;82;21862;-62
2022/08/24 00:25:55;;;;;;;21.42;9.35;;;;;;;19.21;100.00;99951.66;1707538;83;22045;-61
2022/08/24 00:28:22;;;;;;;;;;;;;;;19.21;100.00;99942.86;1703241;82;20931;-61
2022/08/24 00:30:49;;;;;;;17.20;8.43;;;;;;;19.18;100.00;99936.48;1709450;83;20111;-62
2022/08/24 00:33:16;;;;;;;27.82;8.45;;;;;;;19.14;100.00;99940.35;1701284;82;21555;-61
2022/08/24 00:35:43;;;;;;;21.37;8.30;;;;;;;19.12;100.00;99935.66;1680589;83;21053;-61
2022/08/24 00:38:09;;;;;;;;;;;;;;;19.10;100.00;99928.31;1711145;82;21494;-61
2022/08/24 00:40:41;;;;;;;14.80;7.15;;;;;;;19.09;100.00;99928.80;1706189;82;20086;-62
2022/08/24 00:43:10;;;;;;;44.45;8.78;;;;;;;19.04;100.00;99925.67;1704072;82;20945;-62
2022/08/24 00:45:47;;;;;;;18.57;8.18;;;;;;;19.03;100.00;99928.45;1736038;81;20943;-62
2022/08/24 00:48:19;;;;;;;17.95;7.83;;;;;;;19.04;100.00;99923.02;1748259;82;21079;-61
2022/08/24 00:50:59;;;;;;;21.10;7.75;;;;;;;19.04;100.00;99919.55;1737504;81;21473;-61
2022/08/24 00:53:34;;;;;;;35.90;9.25;;;;;;;19.06;100.00;99922.91;1749981;81;20922;-61
2022/08/24 00:56:05;;;;;;;29.65;9.10;;;;;;;19.07;100.00;99929.88;1751517;81;20939;-61
2022/08/24 00:58:40;;;;;;;35.10;9.05;;;;;;;19.09;100.00;99926.64;1748466;81;20868;-61
2022/08/24 01:01:08;;;;;;;40.63;9.40;;;;;;;19.12;100.00;99930.36;1749194;81;21069;-61
2022/08/24 01:03:36;;;;;;;57.45;9.65;;;;;;;19.15;100.00;99928.79;1744817;81;20933;-61
2022/08/24 01:06:05;;;;;;;55.05;9.10;;;;;;;19.14;100.00;99930.61;1710681;83;20985;-62
2022/08/24 01:08:31;;;;;;;16.60;8.15;;;;;;;19.13;100.00;99930.70;1701851;82;21461;-61
2022/08/24 01:11:03;;;;;;;43.60;9.53;;;;;;;19.16;100.00;99921.23;1742101;81;20894;-61
2022/08/24 01:13:31;;;;;;;19.75;7.70;;;;;;;19.14;100.00;99928.44;1750539;81;21536;-62
2022/08/24 01:16:05;;;;;;;15.48;7.95;;;;;;;19.16;100.00;99923.88;1739826;81;21543;-61
2022/08/24 01:18:51;;;;;;;50.80;9.68;;;;;;;19.17;100.00;99928.20;1746198;81;21424;-61
2022/08/24 01:21:32;;;;;;;52.55;9.90;;;;;;;19.17;100.00;99919.77;1745089;81;20942;-61
2022/08/24 01:24:02;;;;;;;56.18;8.78;;;;;;;19.18;100.00;99923.25;1697247;83;20971;-62
2022/08/24 01:26:37;;;;;;;23.70;6.72;;;;;;;19.19;100.00;99925.79;1650373;85;21094;-61
2022/08/24 01:29:08;;;;;;;81.85;7.30;;;;;;;19.16;100.00;99924.72;1648609;85;20930;-61
2022/08/24 01:31:35;;;;;;;23.07;5.30;;;;;;;19.13;100.00;99924.96;1684266;83;21148;-62
2022/08/24 01:34:03;;;;;;;112.42;8.03;;;;;;;19.12;100.00;99927.23;1656459;84;21044;-61
2022/08/24 01:36:35;;;;;;;98.30;7.90;;;;;;;19.11;100.00;99928.20;1647385;85;21108;-61
2022/08/24 01:39:33;;;;;;;145.85;8.88;;;;;;;19.08;100.00;99928.94;1658439;85;21067;-61
2022/08/24 01:42:00;;;;;;;47.13;6.45;;;;;;;19.06;100.00;99932.17;1682615;84;20962;-61
2022/08/24 01:44:29;;;;;;;;;;;;;;;19.04;100.00;99924.34;1692853;83;20941;-62
2022/08/24 01:46:56;;;;;;;384.67;13.22;;;;;;;19.04;100.00;99927.48;1674527;84;20154;-61
2022/08/24 01:49:27;;;;;;;199.15;9.65;;;;;;;19.05;100.00;99923.89;1712425;83;21043;-61
2022/08/24 01:51:54;;;;;;;14.18;4.83;;;;;;;19.10;100.00;99926.98;1707642;83;21001;-61
2022/08/24 01:54:21;;;;;;;301.23;11.70;;;;;;;19.15;100.00;99931.44;1705778;83;21478;-61
2022/08/24 01:56:48;;;;;;;117.20;8.08;;;;;;;19.14;100.00;99935.06;1648066;87;20939;-62
2022/08/24 01:59:15;;;;;;;70.08;5.92;;;;;;;19.10;100.00;99930.50;1707125;83;20924;-62
2022/08/24 02:01:47;;;;;;;73.30;7.10;;;;;;;19.13;100.00;99932.03;1723833;82;21700;-62
2022/08/24 02:04:14;;;;;;;311.23;11.53;;;;;;;19.15;100.00;99927.47;1745705;81;21858;-61
2022/08/24 02:06:43;;;;;;;123.67;8.50;;;;;;;19.14;100.00;99928.44;1739592;81;21487;-62
2022/08/24 02:09:10;;;;;;;137.62;8.30;;;;;;;19.14;100.00;99933.73;1738580;81;21479;-62
2022/08/24 02:11:39;;;;;;;269.30;12.37;;;;;;;19.17;100.00;99930.84;1732464;82;20919;-62
2022/08/24 02:14:06;;;;;;;52.38;7.75;;;;;;;19.18;100.00;99937.81;1747723;82;21025;-62
2022/08/24 02:16:33;;;;;;;9.60;5.60;;;;;;;19.20;100.00;99939.37;1742075;81;25319;-62
2022/08/24 02:18:59;;;;;;;43.48;8.30;;;;;;;19.21;100.00;99946.37;1745934;81;20954;-62
2022/08/24 02:21:26;;;;;;;112.30;9.75;;;;;;;19.21;100.00;99942.86;1732421;82;20926;-62
2022/08/24 02:23:53;;;;;;;79.03;9.30;;;;;;;19.25;100.00;99936.37;1743913;81;20896;-62
2022/08/24 02:26:19;;;;;;;23.85;8.05;;;;;;;19.27;100.00;99939.74;1731246;81;20951;-62
2022/08/24 02:28:46;;;;;;;28.00;8.55;;;;;;;19.27;100.00;99947.69;1678098;84;21428;-62
2022/08/24 02:31:14;;;;;;;87.85;10.45;;;;;;;19.29;100.00;99945.73;1716105;82;20938;-62
2022/08/24 02:33:41;;;;;;;79.45;9.23;;;;;;;19.31;100.00;99946.46;1716940;82;20926;-62
2022/08/24 02:36:09;;;;;;;;;;;;;;;19.35;100.00;99949.23;1704802;83;20907;-62
2022/08/24 02:38:35;;;;;;;28.83;9.33;;;;;;;19.38;100.00;99952.09;1706603;82;20510;-62
2022/08/24 02:41:02;;;;;;;32.88;9.75;;;;;;;19.36;100.00;99944.30;1700176;84;21025;-62
2022/08/24 02:43:29;;;;;;;13.83;8.73;;;;;;;19.38;100.00;99946.34;1702932;82;20933;-62
2022/08/24 02:45:56;;;;;;;18.20;9.50;;;;;;;19.40;100.00;99951.01;1715199;82;20965;-62
2022/08/24 02:48:23;;;;;;;11.70;8.53;;;;;;;19.39;100.00;99954.63;1706262;84;21460;-62
2022/08/24 02:50:51;;;;;;;19.15;8.80;;;;;;;19.37;100.00;99953.91;1702231;84;20890;-62
2022/08/24 02:53:21;;;;;;;29.65;9.43;;;;;;;19.39;100.00;99953.31;1683896;84;21060;-62
2022/08/24 02:55:48;;;;;;;18.05;10.23;;;;;;;19.42;100.00;99951.73;1709977;82;20910;-62
2022/08/24 02:58:17;;;;;;;21.15;9.55;;;;;;;19.42;100.00;99950.41;1704090;82;21523;-62
2022/08/24 03:00:46;;;;;;;36.75;9.73;;;;;;;19.41;100.00;99950.06;1669399;85;21600;-62
2022/08/24 03:03:16;;;;;;;15.45;8.95;;;;;;;19.39;100.00;99948.50;1695809;84;20970;-62
2022/08/24 03:05:43;;;;;;;21.48;9.05;;;;;;;19.43;100.00;99944.14;1669485;85;21353;-62
2022/08/24 03:08:09;;;;;;;19.17;8.78;;;;;;;19.43;100.00;99942.81;1683136;85;21461;-62
2022/08/24 03:10:36;;;;;;;49.48;9.95;;;;;;;19.43;100.00;99940.17;1704583;84;20914;-62
2022/08/24 03:13:03;;;;;;;42.27;9.93;;;;;;;19.43;100.00;99941.98;1662042;85;20895;-62
2022/08/24 03:15:30;;;;;;;;;;;;;;;19.47;100.00;99947.89;1702787;82;20948;-62
2022/08/24 03:17:56;;;;;;;24.90;8.98;;;;;;;19.47;100.00;99951.86;1702361;84;21332;-62
2022/08/24 03:20:23;;;;;;;;;;;;;;;19.45;100.00;99954.13;1666741;84;21467;-62
2022/08/24 03:22:51;;;;;;;25.43;9.58;;;;;;;19.49;100.00;99957.85;1707302;83;20103;-62
2022/08/24 03:25:19;;;;;;;34.15;9.18;;;;;;;19.53;100.00;99961.95;1706103;82;20950;-62
2022/08/24 03:27:46;;;;;;;20.82;9.88;;;;;;;19.56;100.00;99965.68;1700507;84;20961;-62
2022/08/24 03:30:16;;;;;;;14.30;7.33;;;;;;;19.56;100.00;99969.65;1698490;83;20952;-62
2022/08/24 03:32:42;;;;;;;16.05;8.43;;;;;;;19.55;100.00;99974.56;1672763;85;20934;-62
2022/08/24 03:35:11;;;;;;;15.93;9.18;;;;;;;19.54;100.00;99971.58;1706839;82;20961;-62
2022/08/24 03:37:38;;;;;;;19.77;9.00;;;;;;;19.54;100.00;99972.41;1676649;84;21736;-62
2022/08/24 03:40:08;;;;;;;13.58;7.87;;;;;;;19.54;100.00;99970.25;1694638;84;21510;-62
2022/08/24 03:42:35;;;;;;;18.65;9.15;;;;;;;19.57;100.00;99977.94;1702020;83;22031;-62
2022/08/24 03:45:03;;;;;;;17.80;9.83;;;;;;;19.63;100.00;99981.41;1703669;82;21448;-62
2022/08/24 03:47:29;;;;;;;23.50;9.25;;;;;;;19.64;100.00;99987.09;1699894;84;20953;-62
2022/08/24 03:49:56;;;;;;;24.72;9.68;;;;;;;19.66;100.00;99987.81;1703429;83;21970;-62
2022/08/24 03:52:23;;;;;;;20.35;8.63;;;;;;;19.70;100.00;99986.62;1704448;84;20974;-62
2022/08/24 03:54:49;;;;;;;17.25;8.78;;;;;;;19.73;100.00;99991.66;1675162;85;21040;-62
2022/08/24 03:57:16;;;;;;;19.80;10.00;;;;;;;19.78;100.00;99992.14;1701850;82;21487;-62
2022/08/24 03:59:43;;;;;;;17.30;8.63;;;;;;;19.83;100.00;99989.96;1707134;83;20954;-62
2022/08/24 04:02:11;;;;;;;21.90;9.03;;;;;;;19.83;100.00;99995.27;1691725;84;20949;-62
2022/08/24 04:04:37;;;;;;;15.60;8.15;;;;;;;19.92;100.00;99992.83;1706952;82;20925;-62
2022/08/24 04:07:05;;;;;;;13.18;8.45;;;;;;;19.94;100.00;99997.04;1711575;82;21254;-62
2022/08/24 04:09:31;;;;;;;;;;;;;;;19.96;100.00;99996.89;1692321;83;20926;-62
2022/08/24 04:11:58;;;;;;;17.80;8.95;;;;;;;19.93;100.00;99991.85;1699317;82;20096;-62
2022/08/24 04:14:25;;;;;;;16.55;8.20;;;;;;;19.92;100.00;99996.80;1704233;82;21491;-62
2022/08/24 04:16:52;;;;;;;16.52;8.33;;;;;;;19.94;100.00;100005.45;1712854;82;21563;-62
2022/08/24 04:19:18;;;;;;;21.70;9.10;;;;;;;19.95;100.00;100000.03;1703620;82;20991;-62
2022/08/24 04:21:45;;;;;;;16.77;7.87;;;;;;;19.97;100.00;100003.41;1709269;83;21409;-62
2022/08/24 04:24:12;;;;;;;15.00;7.78;;;;;;;20.00;100.00;100006.30;1710359;83;20939;-62
2022/08/24 04:26:40;;;;;;;14.35;8.28;;;;;;;20.05;100.00;100008.06;1710439;83;20922;-61
2022/08/24 04:29:10;;;;;;;16.70;7.20;;;;;;;20.11;100.00;100004.44;1707655;84;20918;-62
2022/08/24 04:31:39;;;;;;;15.63;7.58;;;;;;;20.17;100.00;100009.72;1710344;83;21101;-62
2022/08/24 04:34:06;;;;;;;26.00;8.70;;;;;;;20.20;100.00;100010.78;1703886;84;20921;-62
2022/08/24 04:36:34;;;;;;;15.98;7.50;;;;;;;20.25;100.00;100011.25;1707913;83;20973;-62
2022/08/24 04:39:02;;;;;;;14.28;7.03;;;;;;;20.31;100.00;100013.38;1703207;83;20886;-61
2022/08/24 04:41:28;;;;;;;16.45;8.45;;;;;;;20.33;100.00;100016.76;1709223;84;20984;-61
2022/08/24 04:43:56;;;;;;;19.90;7.62;;;;;;;20.37;100.00;100024.45;1708117;84;20992;-63
2022/08/24 04:46:22;;;;;;;18.07;7.58;;;;;;;20.40;100.00;100020.22;1710297;83;27391;-62
2022/08/24 04:48:49;;;;;;;15.13;7.78;;;;;;;20.45;100.00;100024.66;1710190;84;21033;-61
2022/08/24 04:51:19;;;;;;;18.35;7.08;;;;;;;20.52;100.00;100029.79;1706898;82;20954;-62
2022/08/24 04:53:47;;;;;;;18.73;7.80;;;;;;;20.64;100.00;100024.83;1708714;84;20942;-62
2022/08/24 04:56:24;;;;;;;13.48;7.25;;;;;;;20.67;100.00;100035.18;1709551;83;21074;-62
2022/08/24 04:58:54;;;;;;;23.52;7.65;;;;;;;20.70;100.00;100032.27;1709892;83;20929;-62
2022/08/24 05:01:25;;;;;;;15.72;7.05;;;;;;;20.88;100.00;100036.97;1710185;84;20989;-62
2022/08/24 05:03:54;;;;;;;26.12;8.78;;;;;;;21.07;100.00;100036.24;1710062;84;21400;-62
2022/08/24 05:06:24;;;;;;;19.73;7.62;;;;;;;21.14;100.00;100035.56;1710057;84;21511;-62
2022/08/24 05:08:51;;;;;;;16.00;6.55;;;;;;;21.11;100.00;100042.47;1709067;83;21015;-62
2022/08/24 05:11:19;;;;;;;24.00;6.47;;;;;;;21.09;100.00;100043.11;1710147;82;20941;-62
2022/08/24 05:13:46;;;;;;;17.60;6.87;;;;;;;20.99;100.00;100037.73;1711056;82;20922;-62
2022/08/24 05:16:18;;;;;;;17.20;7.12;;;;;;;20.96;100.00;100039.81;1703186;83;20952;-61
2022/08/24 05:18:45;;;;;;;16.48;6.45;;;;;;;21.00;100.00;100044.74;1709542;82;20973;-62
2022/08/24 05:21:16;;;;;;;17.55;7.00;;;;;;;21.07;100.00;100037.08;1707632;82;21918;-62
2022/08/24 05:23:44;;;;;;;21.45;7.08;;;;;;;21.01;100.00;100035.80;1705994;84;20926;-62
2022/08/24 05:26:15;;;;;;;17.05;5.70;;;;;;;21.00;100.00;100033.25;1706993;82;20922;-62
2022/08/24 05:28:43;;;;;;;13.78;5.97;;;;;;;20.96;100.00;100034.50;1709206;82;20938;-62
2022/08/24 05:31:15;;;;;;;13.90;6.00;;;;;;;20.93;100.00;100032.12;1708702;83;21009;-62
2022/08/24 05:33:44;;;;;;;19.02;6.10;;;;;;;20.87;100.00;100035.30;1709341;83;20916;-63
2022/08/24 05:36:27;;;;;;;15.43;5.78;;;;;;;20.76;100.00;100036.21;1708397;84;20907;-63
2022/08/24 05:38:57;;;;;;;16.57;5.53;;;;;;;20.82;100.00;100034.84;1717790;82;20954;-63
2022/08/24 05:41:24;;;;;;;12.28;5.42;;;;;;;20.94;100.00;100028.48;1701660;83;20918;-63
2022/08/24 05:43:51;;;;;;;;;;;;;;;20.96;100.00;100031.85;1708330;82;20910;-63
2022/08/24 05:46:19;;;;;;;11.53;4.80;;;;;;;21.00;100.00;100030.59;1705582;83;21042;-63
2022/08/24 05:48:46;;;;;;;12.05;5.60;;;;;;;21.07;100.00;100034.42;1746756;81;20982;-63
2022/08/24 05:51:12;;;;;;;11.38;5.33;;;;;;;21.09;100.00;100037.80;1748201;82;20891;-63
2022/08/24 05:53:40;;;;;;;11.50;5.75;;;;;;;21.05;100.00;100032.88;1745755;82;20914;-63
2022/08/24 05:56:12;;;;;;;14.33;5.62;;;;;;;21.03;100.00;100030.33;1748042;81;21633;-63
2022/08/24 05:58:39;;;;;;;17.65;6.50;;;;;;;21.07;100.00;100034.92;1748287;82;21820;-63
2022/08/24 06:01:13;;;;;;;11.85;4.97;;;;;;;21.15;100.00;100038.59;1748542;82;20951;-63
2022/08/24 06:03:41;;;;;;;13.78;5.30;;;;;;;21.20;100.00;100044.80;1748650;82;20993;-63
2022/08/24 06:06:09;;;;;;;11.75;4.30;;;;;;;21.37;100.00;100048.69;1747409;82;21649;-62
2022/08/24 06:08:38;;;;;;;14.25;5.22;;;;;;;21.95;100.00;100040.87;1746151;82;20990;-64
2022/08/24 06:11:05;;;;;;;13.32;4.92;;;;;;;22.74;100.00;100035.91;1701209;82;21051;-62
2022/08/24 06:13:33;;;;;;;20.08;4.70;;;;;;;23.47;100.00;100032.15;1744693;82;21414;-66
2022/08/24 06:16:12;;;;;;;9.65;4.25;;;;;;;23.96;98.17;100042.05;1749950;81;21460;-66
2022/08/24 06:18:40;;;;;;;12.47;4.65;;;;;;;23.77;94.69;100039.00;1710092;83;21530;-66
2022/08/24 06:21:11;;;;;;;13.93;4.65;;;;;;;24.01;96.11;100042.94;1745932;82;20937;-64
2022/08/24 06:23:40;;;;;;;12.80;4.45;;;;;;;24.20;96.04;100041.92;1746682;82;21774;-63
2022/08/24 06:28:53;;;;;;;19.77;4.45;;;;;;;24.94;94.86;100046.06;1730522;81;20966;-63
2022/08/24 06:31:20;;;;;;;15.20;4.40;;;;;;;24.86;90.71;100048.67;1730948;82;20961;-64
2022/08/24 06:33:47;;;;;;;15.40;4.40;;;;;;;24.72;93.27;100047.41;1723676;82;21425;-64
2022/08/24 06:36:14;;;;;;;13.88;3.65;;;;;;;25.04;94.37;100046.80;1727795;81;21956;-65
2022/08/24 06:38:40;;;;;;;;;;;;;;;25.41;94.77;100051.86;1715645;83;20954;-64
2022/08/24 06:41:08;;;;;;;16.02;5.00;;;;;;;25.54;90.69;100056.73;1736777;82;20095;-65
2022/08/24 06:43:36;;;;;;;8.88;3.67;;;;;;;25.35;91.03;100051.67;1744131;81;20871;-64
2022/08/24 06:46:04;;;;;;;16.55;3.35;;;;;;;25.32;88.73;100056.84;1748932;81;20920;-65
2022/08/24 06:48:32;;;;;;;13.93;4.30;;;;;;;25.13;90.35;100053.86;1748448;81;20995;-65
2022/08/24 06:50:59;;;;;;;17.20;4.40;;;;;;;25.35;92.38;100063.70;1736180;81;21467;-65
2022/08/24 06:53:26;;;;;;;13.68;4.42;;;;;;;25.86;93.28;100058.73;1731253;81;20934;-64
2022/08/24 06:55:57;;;;;;;11.95;4.17;;;;;;;26.51;93.96;100060.69;1732062;81;20917;-64
2022/08/24 06:58:27;;;;;;;17.12;4.53;;;;;;;26.70;91.03;100065.38;1740351;81;20970;-64
2022/08/24 07:00:55;;;;;;;17.23;4.42;;;;;;;26.84;91.27;100071.39;1729541;81;22025;-63
2022/08/24 07:03:24;;;;;;;18.85;4.62;;;;;;;26.84;88.91;100071.39;1753986;81;20946;-62
2022/08/24 07:05:58;;;;;;;11.00;4.03;;;;;;;26.31;87.73;100072.19;1747208;81;20938;-63
2022/08/24 07:08:25;;;;;;;12.13;4.20;;;;;;;26.16;88.53;100075.67;1735187;81;20918;-63
2022/08/24 07:10:52;;;;;;;14.50;3.98;;;;;;;26.23;86.72;100074.02;1737092;81;20938;-63
2022/08/24 07:13:18;;;;;;;14.80;3.90;;;;;;;26.55;89.21;100067.39;1732255;81;21866;-63
2022/08/24 07:15:46;;;;;;;12.55;3.87;;;;;;;27.08;89.72;100068.32;1736942;81;21491;-63
2022/08/24 07:18:15;;;;;;;15.20;4.17;;;;;;;27.01;85.21;100075.70;1738441;81;20946;-63
2022/08/24 07:20:43;;;;;;;14.70;3.85;;;;;;;26.71;86.23;100071.05;1732374;81;21020;-62
2022/08/24 07:23:14;;;;;;;11.18;3.75;;;;;;;26.11;82.68;100073.00;1746985;81;20910;-62
2022/08/24 07:25:41;;;;;;;16.35;4.67;;;;;;;25.53;83.06;100081.81;1751668;81;21003;-62
2022/08/24 07:28:08;;;;;;;12.68;4.45;;;;;;;25.37;85.08;100081.73;1750523;81;20926;-63
2022/08/24 07:30:35;;;;;;;15.38;4.05;;;;;;;25.28;83.50;100078.68;1747970;81;20934;-63
2022/08/24 07:33:01;;;;;;;;;;;;;;;25.23;82.67;100090.70;1744683;81;21498;-63
2022/08/24 07:35:31;;;;;;;19.10;4.97;;;;;;;25.09;82.69;100083.70;1752629;81;20142;-62
2022/08/24 07:37:58;;;;;;;15.43;4.30;;;;;;;25.37;83.65;100081.73;1754747;81;21097;-61
2022/08/24 07:40:28;;;;;;;14.45;4.47;;;;;;;25.49;84.50;100079.61;1755176;81;20942;-62
2022/08/24 07:42:58;;;;;;;16.35;4.28;;;;;;;25.60;84.61;100077.51;1726305;81;21450;-62
2022/08/24 07:45:27;;;;;;;12.78;4.50;;;;;;;25.40;81.84;100087.61;1752712;81;20895;-62
2022/08/24 07:47:55;;;;;;;12.33;4.10;;;;;;;25.02;82.98;100094.20;1752362;81;20934;-62
2022/08/24 07:50:21;;;;;;;14.38;4.55;;;;;;;24.82;83.14;100090.05;1754294;81;21556;-62
2022/08/24 07:52:48;;;;;;;;;;;;;;;24.51;82.66;100099.81;1754079;81;20961;-62
2022/08/24 07:55:14;;;;;;;;;;;;;;;23.99;81.63;100096.91;1756497;81;20150;-62
2022/08/24 07:57:43;;;;;;;16.42;4.78;;;;;;;23.60;80.11;100101.08;1756427;81;20408;-62
2022/08/24 08:00:13;;;;;;;16.95;4.92;;;;;;;23.32;82.27;100095.72;1750997;80;20923;-63
2022/08/24 08:02:45;;;;;;;21.35;4.00;;;;;;;23.20;83.10;100092.39;1751448;80;20982;-62
2022/08/24 08:05:10;;;;;;;12.30;4.53;;;;;;;23.21;83.24;100098.55;1754173;80;20891;-62
2022/08/24 08:07:37;;;;;;;16.05;4.80;;;;;;;23.30;83.24;100092.38;1754210;80;20871;-62
2022/08/24 08:10:05;;;;;;;9.80;4.33;;;;;;;23.41;83.34;100094.86;1754900;80;20917;-62
2022/08/24 08:12:33;;;;;;;17.02;4.72;;;;;;;23.56;83.07;100095.71;1755089;80;20930;-62
2022/08/24 08:15:00;;;;;;;20.23;5.28;;;;;;;23.70;83.57;100093.89;1750131;80;21055;-62
2022/08/24 08:17:27;;;;;;;;;;;;;;;23.69;82.39;100098.85;1759307;80;20946;-62
2022/08/24 08:19:53;;;;;;;;;;;;;;;23.62;82.31;100103.11;1757317;80;20110;-62
2022/08/24 08:25:08;;;;;;;13.48;4.65;;;;;;;23.95;82.02;100099.55;1751639;81;21510;-63
2022/08/24 08:27:35;;;;;;;16.48;4.47;;;;;;;24.03;83.19;100098.28;1753474;81;21345;-62
2022/08/24 08:30:05;;;;;;;;;;;;;;;24.38;83.51;100103.32;1755655;81;21547;-61
2022/08/24 08:32:31;;;;;;;16.62;4.55;;;;;;;24.59;83.13;100110.56;1752195;81;20098;-62
2022/08/24 08:34:58;;;;;;;17.70;4.92;;;;;;;24.78;83.19;100102.35;1748575;80;20957;-64
2022/08/24 08:37:25;;;;;;;;;;;;;;;24.84;82.04;100105.40;1749708;81;20946;-65
2022/08/24 08:39:52;;;;;;;15.98;4.08;;;;;;;24.99;82.39;100115.88;1739396;81;21094;-65
2022/08/24 08:42:33;;;;;;;10.60;4.17;;;;;;;25.27;82.22;100110.42;1753546;81;20894;-65
2022/08/24 08:45:30;;;;;;;18.00;4.30;;;;;;;25.41;82.16;100108.50;1708218;82;20966;-64
2022/08/24 08:48:14;;;;;;;11.83;3.80;;;;;;;25.52;81.62;100113.56;1740792;81;20974;-64
2022/08/24 08:51:24;;;;;;;23.20;5.15;;;;;;;25.53;81.11;100111.22;1742016;82;20958;-67
2022/08/24 08:54:33;;;;;;;17.57;4.55;;;;;;;25.66;81.25;100106.27;1746742;80;20964;-63
2022/08/24 08:57:23;;;;;;;14.98;4.60;;;;;;;25.78;81.05;100100.63;1746242;82;20942;-64
2022/08/24 09:00:10;;;;;;;16.00;4.55;;;;;;;26.00;80.87;100102.74;1739216;81;21504;-65
2022/08/24 09:02:57;;;;;;;10.50;4.42;;;;;;;26.41;81.29;100100.16;1732362;82;20962;-64
2022/08/24 09:05:35;;;;;;;13.00;4.15;;;;;;;26.49;79.48;100100.14;1693023;82;20945;-64
2022/08/24 09:08:39;;;;;;;10.80;3.87;;;;;;;26.38;78.02;100097.78;1710191;82;21920;-63
2022/08/24 09:11:33;;;;;;;11.25;3.77;;;;;;;26.07;76.41;100108.27;1692457;82;21499;-64
2022/08/24 09:14:43;;;;;;;10.25;3.75;;;;;;;25.82;75.98;100115.34;1691969;82;20986;-62
2022/08/24 09:17:51;;;;;;;10.15;4.03;;;;;;;25.73;76.43;100102.95;1694285;82;20969;-65
2022/08/24 09:20:45;;;;;;;9.40;3.45;;;;;;;25.21;74.92;100108.72;1698404;82;20943;-64
2022/08/24 09:23:49;;;;;;;11.90;3.90;;;;;;;24.87;76.15;100107.76;1682571;82;21895;-64
2022/08/24 09:26:52;;;;;;;13.98;4.25;;;;;;;24.91;76.98;100106.47;1689293;82;20949;-64
2022/08/24 09:29:26;;;;;;;9.65;3.67;;;;;;;24.85;77.17;100111.11;1696083;82;21633;-64
2022/08/24 09:32:16;;;;;;;12.30;4.05;;;;;;;25.04;77.23;100110.91;1690185;82;20932;-64
2022/08/24 09:35:08;;;;;;;17.98;4.72;;;;;;;25.12;76.68;100112.78;1692372;82;20976;-64
2022/08/24 09:37:55;;;;;;;8.93;3.92;;;;;;;25.29;77.40;100112.41;1693410;82;21141;-64
2022/08/24 09:41:02;;;;;;;13.88;4.17;;;;;;;25.54;77.43;100111.55;1709536;82;20965;-64
2022/08/24 09:43:48;;;;;;;15.75;3.70;;;;;;;25.72;75.79;100114.66;1749959;81;20920;-64
2022/08/24 09:47:07;;;;;;;13.20;3.98;;;;;;;25.86;75.69;100108.72;1637797;86;20943;-64
2022/08/24 09:50:12;;;;;;;8.55;3.42;;;;;;;26.09;76.24;100112.46;1596483;88;21615;-64
2022/08/24 09:53:16;;;;;;;13.83;3.72;;;;;;;26.36;76.29;100101.66;1619806;88;21173;-65
2022/08/24 09:56:18;;;;;;;11.63;4.08;;;;;;;26.48;75.36;100109.19;1613637;87;21493;-65
2022/08/24 09:58:56;;;;;;;11.88;4.17;;;;;;;26.50;72.81;100109.89;1601674;87;20966;-66
2022/08/24 10:01:38;;;;;;;8.88;3.65;;;;;;;26.34;73.25;100120.55;1605404;88;21039;-64
2022/08/24 10:04:31;;;;;;;8.95;3.42;;;;;;;26.26;73.11;100099.12;1619193;88;20996;-64
2022/08/24 10:07:35;;;;;;;11.22;3.87;;;;;;;25.99;71.24;100109.11;1597243;88;21073;-66
2022/08/24 10:10:37;;;;;;;9.13;3.58;;;;;;;25.81;71.16;100109.67;1535899;92;21538;-64
2022/08/24 10:13:41;;;;;;;11.28;4.03;;;;;;;25.94;73.60;100110.59;1529658;91;21087;-64
2022/08/24 10:16:40;;;;;;;11.57;3.50;;;;;;;25.89;71.75;100113.24;1526051;92;21014;-64
2022/08/24 10:19:36;;;;;;;11.22;3.65;;;;;;;25.76;72.76;100119.50;1528140;92;21062;-63
2022/08/24 10:22:37;;;;;;;12.43;4.28;;;;;;;25.67;72.17;100109.27;1527169;92;21101;-63
2022/08/24 10:25:25;;;;;;;16.90;3.77;;;;;;;25.93;72.66;100107.06;1594185;88;21539;-61
2022/08/24 10:28:06;;;;;;;17.75;4.00;;;;;;;25.96;72.29;100109.41;1587862;88;20950;-61
2022/08/24 10:30:53;;;;;;;7.78;3.83;;;;;;;26.38;72.48;100100.46;1596849;88;21026;-61
2022/08/24 10:33:34;;;;;;;9.90;3.75;;;;;;;26.23;70.85;100112.83;1589994;88;21752;-61
2022/08/24 10:36:08;;;;;;;7.00;3.22;;;;;;;26.31;71.71;100110.17;1598059;88;21954;-63
2022/08/24 10:42:03;;;;;;;13.48;3.62;;;;;;;26.21;70.81;100114.83;1579005;89;21049;-63
2022/08/24 10:44:51;;;;;;;8.15;3.22;;;;;;;26.32;71.56;100111.84;1640669;84;20921;-63
2022/08/24 10:47:33;;;;;;;6.85;3.08;;;;;;;26.18;69.47;100113.81;1665282;83;20930;-62
2022/08/24 10:50:21;;;;;;;8.90;3.17;;;;;;;25.82;69.94;100123.37;1656348;85;21118;-62
2022/08/24 10:53:21;;;;;;;13.15;3.95;;;;;;;25.44;69.43;100133.06;1665880;83;21547;-62
2022/08/24 10:55:53;;;;;;;9.13;3.05;;;;;;;25.07;70.38;100129.80;1665645;83;21552;-62
2022/08/24 10:58:53;;;;;;;9.98;3.10;;;;;;;24.90;71.59;100127.48;1678372;82;20921;-62
2022/08/24 11:01:31;;;;;;;10.30;3.15;;;;;;;24.92;70.88;100132.17;1699178;82;21527;-62
2022/08/24 11:04:08;;;;;;;7.28;3.02;;;;;;;24.96;70.70;100134.89;1703161;83;21570;-62
2022/08/24 11:06:39;;;;;;;12.30;3.10;;;;;;;24.88;71.10;100136.16;1700908;84;21578;-62
2022/08/24 11:09:15;;;;;;;9.68;3.12;;;;;;;25.19;71.91;100145.44;1694330;84;20942;-62
2022/08/24 11:11:46;;;;;;;9.68;3.45;;;;;;;25.28;71.08;100136.14;1664012;84;20934;-62
2022/08/24 11:14:27;;;;;;;10.75;3.22;;;;;;;25.73;72.35;100140.39;1708833;83;21120;-63
2022/08/24 11:17:18;;;;;;;10.70;3.35;;;;;;;26.21;72.18;100137.06;1675850;85;21135;-62
2022/08/24 11:19:44;;;;;;;11.15;3.37;;;;;;;26.31;70.54;100135.60;1675153;85;20935;-62
2022/08/24 11:22:39;;;;;;;6.87;3.33;;;;;;;26.35;70.89;100132.92;1681646;83;20946;-62
2022/08/24 11:25:27;;;;;;;10.55;2.98;;;;;;;26.21;69.94;100138.91;1683670;85;21014;-62
2022/08/24 11:28:10;;;;;;;11.05;3.00;;;;;;;26.44;70.93;100139.98;1683295;85;20978;-62
2022/08/24 11:30:40;;;;;;;18.50;3.85;;;;;;;26.41;68.40;100143.00;1687574;85;21074;-62
2022/08/24 11:33:32;;;;;;;10.13;3.12;;;;;;;26.24;69.86;100136.77;1684890;84;20935;-61
2022/08/24 11:36:02;;;;;;;9.83;2.92;;;;;;;26.48;69.61;100142.66;1675390;84;20974;-63
2022/08/24 11:38:35;;;;;;;8.20;2.62;;;;;;;26.32;68.47;100149.31;1674054;85;20994;-62
2022/08/24 11:41:28;;;;;;;12.58;3.52;;;;;;;26.17;69.57;100149.12;1686609;85;21457;-63
2022/08/24 11:44:15;;;;;;;15.13;3.47;;;;;;;26.12;70.11;100150.94;1686184;85;21176;-63
2022/08/24 11:46:52;;;;;;;7.45;2.87;;;;;;;25.88;68.81;100155.72;1686915;84;20926;-62
2022/08/24 11:49:39;;;;;;;13.35;3.17;;;;;;;26.05;70.36;100153.94;1686052;85;21481;-63
2022/08/24 11:52:26;;;;;;;12.07;2.85;;;;;;;26.14;67.17;100162.83;1685605;84;20971;-62
2022/08/24 11:55:15;;;;;;;9.05;2.75;;;;;;;25.84;68.55;100150.84;1612021;87;21022;-62
2022/08/24 11:58:07;;;;;;;9.10;2.50;;;;;;;25.81;69.01;100154.63;1647116;86;21210;-62